Databases of registered domains

Download a list of 252 757 194 domains in 1216 zones!

Frequency of updating the database is 1-2 months.

Contacts: purecrawlcom@gmail.com

# Tlds File size Number of domains Updated Downloads
1 all in one 978 MB 252,757,194 2024-05-18 936 Download
2 3l (3x level) 58 MB 13,167,354 2024-05-18 378 Download
3 com 587 MB 156,591,433 2024-05-18 413 Download
4 net 49 MB 12,780,812 2024-05-18 253 Download
5 org 45 MB 10,886,614 2024-05-18 314 Download
6 ru 19 MB 5,667,543 2024-06-14 1164 Download
7 de 22 MB 4,710,892 2024-05-18 189 Download
8 info 15 MB 3,590,488 2024-05-18 273 Download
9 xyz 14 MB 3,408,477 2024-05-18 81 Download
10 online 14 MB 3,054,585 2024-05-18 124 Download
11 shop 12 MB 2,825,018 2024-05-18 238 Download
12 top 10 MB 2,772,966 2024-05-18 92 Download
13 ch 10 MB 2,529,779 2024-05-18 56 Download
14 nl 8 MB 1,831,936 2024-05-18 81 Download
15 site 7 MB 1,555,671 2024-05-18 85 Download
16 store 6 MB 1,488,085 2024-05-18 79 Download
17 fr 7 MB 1,450,864 2024-05-18 101 Download
18 it 6 MB 1,436,102 2024-05-18 98 Download
19 se 6 MB 1,405,332 2024-05-18 65 Download
20 uk 5 MB 1,233,664 2024-05-18 88 Download
21 biz 5 MB 1,229,498 2024-05-18 87 Download
22 cfd 4 MB 968,743 2024-05-18 31 Download
23 vip 3 MB 921,048 2024-05-18 54 Download
24 cn 3 MB 910,042 2024-05-18 61 Download
25 xn--p1ai (рф) 5 MB 776,240 2024-06-14 568 Download
26 pl 3 MB 746,231 2024-05-18 100 Download
27 eu 3 MB 739,740 2024-05-18 72 Download
28 app 2 MB 700,218 2024-05-18 50 Download
29 sbs 3 MB 644,720 2024-05-18 6 Download
30 ca 3 MB 629,018 2024-05-18 65 Download
31 club 2 MB 592,505 2024-05-18 50 Download
32 pro 2 MB 573,236 2024-05-18 60 Download
33 live 2 MB 556,699 2024-05-18 46 Download
34 jp 2 MB 544,053 2024-05-18 70 Download
35 cz 2 MB 509,139 2024-05-18 63 Download
36 click 2 MB 507,954 2024-05-18 45 Download
37 tech 2 MB 468,481 2024-05-18 51 Download
38 es 2 MB 460,708 2024-05-18 77 Download
39 be 2 MB 457,763 2024-05-18 54 Download
40 sk 2 MB 437,874 2024-05-18 40 Download
41 icu 2 MB 426,494 2024-05-18 7 Download
42 dev 1 MB 415,447 2024-05-18 44 Download
43 at 2 MB 415,288 2024-05-18 49 Download
44 fun 2 MB 415,158 2024-05-18 51 Download
45 life 2 MB 408,823 2024-05-18 37 Download
46 dk 2 MB 401,122 2024-05-18 51 Download
47 in 2 MB 395,135 2024-05-18 64 Download
48 cloud 1 MB 368,302 2024-05-18 49 Download
49 space 2 MB 367,422 2024-05-18 57 Download
50 lol 1 MB 355,849 2024-05-18 32 Download
51 asia 1 MB 324,615 2024-05-18 31 Download
52 co 1 MB 310,513 2024-05-18 60 Download
53 today 1 MB 307,605 2024-05-18 34 Download
54 website 1 MB 290,391 2024-05-18 41 Download
55 hu 1 MB 288,880 2024-05-18 36 Download
56 bond 1 MB 286,640 2024-05-18 7 Download
57 buzz 1 MB 267,069 2024-05-18 30 Download
58 blog 1 MB 255,659 2024-05-18 53 Download
59 mobi 1 MB 247,385 2024-05-18 37 Download
60 art 1 MB 246,738 2024-05-18 38 Download
61 ir 888 KB 243,573 2024-05-18 33 Download
62 world 995 KB 231,410 2024-05-18 41 Download
63 cyou 885 KB 226,238 2024-05-18 31 Download
64 link 866 KB 220,660 2024-05-18 34 Download
65 nu 898 KB 219,963 2024-05-18 35 Download
66 ro 930 KB 219,879 2024-05-18 47 Download
67 fi 946 KB 217,304 2024-05-18 54 Download
68 work 904 KB 213,984 2024-05-18 42 Download
69 one 751 KB 204,193 2024-05-18 34 Download
70 gr 848 KB 203,199 2024-05-18 34 Download
71 no 828 KB 195,671 2024-05-18 44 Download
72 us 788 KB 182,644 2024-05-18 88 Download
73 tokyo 746 KB 180,073 2024-05-18 30 Download
74 io 584 KB 168,651 2024-05-18 78 Download
75 me 579 KB 151,091 2024-05-18 58 Download
76 xn--ses554g (网址) 1 MB 140,100 2024-05-18 5 Download
77 lat 503 KB 138,195 2024-05-18 22 Download
78 cl 581 KB 133,070 2024-05-18 37 Download
79 digital 520 KB 131,441 2024-05-18 40 Download
80 ltd 437 KB 118,836 2024-05-18 32 Download
81 studio 421 KB 114,934 2024-05-18 39 Download
82 email 427 KB 114,760 2024-05-18 38 Download
83 design 429 KB 112,427 2024-05-18 35 Download
84 pt 485 KB 111,377 2024-05-18 32 Download
85 agency 415 KB 111,037 2024-05-18 39 Download
86 cat 484 KB 110,580 2024-05-18 32 Download
87 group 386 KB 109,462 2024-05-18 35 Download
88 su 379 KB 109,256 2024-06-14 303 Download
89 vn 419 KB 109,153 2024-05-18 29 Download
90 ie 479 KB 104,870 2024-05-18 36 Download
91 solutions 399 KB 103,016 2024-05-18 29 Download
92 win 340 KB 93,758 2024-05-18 38 Download
93 cc 323 KB 93,167 2024-05-18 43 Download
94 lt 355 KB 90,017 2024-05-18 38 Download
95 media 305 KB 84,404 2024-05-18 30 Download
96 services 339 KB 81,339 2024-05-18 30 Download
97 bio 301 KB 78,830 2024-05-18 29 Download
98 ink 295 KB 77,970 2024-05-18 25 Download
99 name 336 KB 77,881 2024-05-18 34 Download
100 network 281 KB 76,541 2024-05-18 31 Download
101 company 308 KB 76,071 2024-05-18 38 Download
102 bet 228 KB 75,430 2024-05-18 34 Download
103 tv 293 KB 72,969 2024-05-18 37 Download
104 homes 318 KB 71,135 2024-05-18 22 Download
105 ovh 303 KB 69,889 2024-05-18 24 Download
106 news 271 KB 69,031 2024-05-18 42 Download
107 love 273 KB 67,051 2024-05-18 36 Download
108 monster 271 KB 64,862 2024-05-18 7 Download
109 rocks 257 KB 64,033 2024-05-18 28 Download
110 si 264 KB 62,908 2024-05-18 30 Download
111 best 292 KB 62,490 2024-05-18 28 Download
112 pics 273 KB 62,307 2024-05-18 29 Download
113 mx 258 KB 61,602 2024-05-18 54 Download
114 ee 236 KB 60,983 2024-05-18 37 Download
115 fyi 335 KB 60,366 2024-05-18 27 Download
116 nyc 248 KB 60,107 2024-05-18 25 Download
117 wiki 250 KB 59,090 2024-05-18 33 Download
118 by 209 KB 57,223 2024-05-18 75 Download
119 kr 234 KB 56,568 2024-05-18 43 Download
120 academy 229 KB 56,305 2024-05-18 31 Download
121 global 213 KB 55,041 2024-05-18 7 Download
122 guru 219 KB 53,547 2024-05-18 35 Download
123 skin 365 KB 53,462 2024-05-18 11 Download
124 social 204 KB 51,272 2024-05-18 27 Download
125 team 189 KB 50,831 2024-05-18 25 Download
126 ws 218 KB 49,401 2024-05-18 28 Download
127 kz 189 KB 49,332 2024-05-18 90 Download
128 hr 212 KB 49,175 2024-05-18 33 Download
129 africa 203 KB 48,693 2024-05-18 25 Download
130 games 178 KB 47,704 2024-05-18 32 Download
131 zone 238 KB 46,499 2024-05-18 25 Download
132 wang 177 KB 45,786 2024-05-18 26 Download
133 page 220 KB 45,688 2024-05-18 25 Download
134 berlin 209 KB 45,537 2024-05-18 24 Download
135 rs 192 KB 45,277 2024-05-18 37 Download
136 mom 187 KB 44,641 2024-05-18 26 Download
137 lv 175 KB 44,466 2024-05-18 35 Download
138 id 185 KB 44,226 2024-05-18 36 Download
139 quest 201 KB 43,718 2024-05-18 5 Download
140 autos 199 KB 42,650 2024-05-18 22 Download
141 med 117 KB 41,816 2024-05-18 24 Download
142 llc 164 KB 41,010 2024-05-18 23 Download
143 tel 174 KB 40,109 2024-05-18 24 Download
144 cf 192 KB 39,604 2024-05-18 29 Download
145 care 150 KB 39,538 2024-05-18 23 Download
146 wtf 141 KB 39,197 2024-05-18 23 Download
147 photography 170 KB 38,848 2024-05-18 24 Download
148 center 155 KB 38,507 2024-05-18 24 Download
149 cam 166 KB 38,103 2024-05-18 26 Download
150 chat 128 KB 37,980 2024-05-18 26 Download
151 ai 127 KB 37,534 2024-05-18 46 Download
152 earth 134 KB 37,179 2024-05-18 26 Download
153 consulting 143 KB 37,075 2024-05-18 26 Download
154 systems 131 KB 36,537 2024-05-18 25 Download
155 support 142 KB 36,321 2024-05-18 29 Download
156 health 138 KB 36,315 2024-05-18 26 Download
157 tk 205 KB 35,725 2024-05-18 64 Download
158 fit 125 KB 34,563 2024-05-18 24 Download
159 finance 119 KB 34,399 2024-05-18 35 Download
160 family 120 KB 33,964 2024-05-18 25 Download
161 london 153 KB 33,834 2024-05-18 27 Download
162 events 134 KB 33,781 2024-05-18 23 Download
163 business 141 KB 33,673 2024-05-18 31 Download
164 technology 121 KB 32,984 2024-05-18 27 Download
165 bg 126 KB 32,941 2024-05-18 32 Download
166 realtor 160 KB 32,847 2024-05-18 24 Download
167 expert 134 KB 32,632 2024-05-18 26 Download
168 ae 133 KB 32,101 2024-05-18 38 Download
169 beauty 148 KB 31,816 2024-05-18 13 Download
170 church 127 KB 31,573 2024-05-18 24 Download
171 education 132 KB 31,145 2024-05-18 39 Download
172 city 114 KB 31,021 2024-05-18 28 Download
173 foundation 132 KB 30,848 2024-05-18 28 Download
174 marketing 117 KB 30,564 2024-05-18 26 Download
175 xn--3ds443g (在线) 248 KB 30,221 2024-05-18 4 Download
176 works 108 KB 29,703 2024-05-18 25 Download
177 bayern 142 KB 29,334 2024-05-18 24 Download
178 run 106 KB 29,297 2024-05-18 26 Download
179 gmbh 113 KB 29,041 2024-05-18 22 Download
180 xn--czr694b (商标) 183 KB 28,736 2024-05-18 22 Download
181 plus 97 KB 28,661 2024-05-18 24 Download
182 ninja 108 KB 28,637 2024-05-18 25 Download
183 capital 98 KB 28,554 2024-05-18 25 Download
184 international 112 KB 27,346 2024-05-18 24 Download
185 coach 113 KB 26,554 2024-05-18 24 Download
186 xn--55qx5d (公司) 200 KB 26,277 2024-05-18 25 Download
187 coffee 97 KB 25,862 2024-05-18 25 Download
188 farm 100 KB 25,829 2024-05-18 27 Download
189 is 96 KB 24,838 2024-05-18 27 Download
190 host 102 KB 24,835 2024-05-18 26 Download
191 help 111 KB 24,743 2024-05-18 24 Download
192 lu 110 KB 24,675 2024-05-18 27 Download
193 xn--czru2d (商城) 190 KB 24,671 2024-05-18 21 Download
194 house 90 KB 24,170 2024-05-18 23 Download
195 cool 83 KB 24,032 2024-05-18 23 Download
196 community 98 KB 23,666 2024-05-18 24 Download
197 cafe 86 KB 23,201 2024-05-18 25 Download
198 travel 94 KB 23,200 2024-05-18 27 Download
199 energy 82 KB 23,114 2024-05-18 24 Download
200 tools 82 KB 23,027 2024-05-18 25 Download
201 training 97 KB 22,926 2024-05-18 24 Download
202 software 87 KB 22,706 2024-05-18 25 Download
203 gay 97 KB 22,698 2024-05-18 15 Download
204 baby 87 KB 22,678 2024-05-18 21 Download
205 tw 99 KB 22,669 2024-05-18 30 Download
206 tips 93 KB 22,526 2024-05-18 24 Download
207 school 91 KB 22,376 2024-05-18 28 Download
208 ph 98 KB 22,322 2024-05-18 24 Download
209 video 88 KB 22,057 2024-05-18 25 Download
210 ventures 79 KB 22,017 2024-05-18 24 Download
211 land 78 KB 21,760 2024-05-18 10 Download
212 photos 87 KB 21,319 2024-05-18 26 Download
213 bid 81 KB 21,259 2024-05-18 23 Download
214 law 80 KB 21,090 2024-05-18 22 Download
215 fund 79 KB 20,745 2024-05-18 23 Download
216 pub 73 KB 20,688 2024-05-18 25 Download
217 xn--p1acf (рус) 135 KB 20,637 2024-05-18 37 Download
218 amsterdam 86 KB 20,298 2024-05-18 22 Download
219 party 87 KB 20,227 2024-05-18 24 Download
220 sg 88 KB 20,178 2024-05-18 26 Download
221 market 76 KB 20,149 2024-05-18 28 Download
222 ma 81 KB 19,872 2024-05-18 30 Download
223 bike 72 KB 19,839 2024-05-18 22 Download
224 ing 73 KB 19,788 2024-05-18 10 Download
225 casino 67 KB 19,511 2024-05-18 39 Download
226 hair 97 KB 19,389 2024-05-18 22 Download
227 paris 87 KB 19,375 2024-05-18 24 Download
228 swiss 83 KB 19,336 2024-05-18 23 Download
229 trade 77 KB 19,278 2024-05-18 24 Download
230 immo 77 KB 19,234 2024-05-18 23 Download
231 gallery 78 KB 18,957 2024-05-18 24 Download
232 koeln 87 KB 18,928 2024-05-18 23 Download
233 rest 93 KB 18,911 2024-05-18 21 Download
234 red 62 KB 18,725 2024-05-18 22 Download
235 legal 73 KB 18,721 2024-05-18 21 Download
236 nrw 85 KB 18,313 2024-05-18 22 Download
237 bar 72 KB 18,276 2024-05-18 27 Download
238 hamburg 87 KB 18,157 2024-05-18 5 Download
239 nz 89 KB 18,146 2024-05-18 28 Download
240 xn--io0a7i (网络) 141 KB 18,040 2024-05-18 26 Download
241 guide 72 KB 18,008 2024-05-18 21 Download
242 money 63 KB 17,948 2024-05-18 25 Download
243 rip 54 KB 17,923 2024-05-18 19 Download
244 wine 77 KB 17,888 2024-05-18 21 Download
245 show 72 KB 17,559 2024-05-18 22 Download
246 uno 80 KB 17,534 2024-05-18 5 Download
247 cash 60 KB 17,375 2024-05-18 28 Download
248 zip 68 KB 17,260 2024-05-18 15 Download
249 pk 70 KB 17,255 2024-05-18 25 Download
250 press 76 KB 17,225 2024-05-18 25 Download
251 band 76 KB 17,171 2024-05-18 21 Download
252 uz 66 KB 17,125 2024-05-18 35 Download
253 dog 65 KB 17,058 2024-05-18 22 Download
254 exchange 60 KB 16,891 2024-05-18 27 Download
255 casa 67 KB 16,866 2024-05-18 19 Download
256 pet 60 KB 16,736 2024-05-18 21 Download
257 photo 69 KB 16,538 2024-05-18 22 Download
258 gq 85 KB 16,413 2024-05-18 34 Download
259 ge 60 KB 16,369 2024-05-18 30 Download
260 realestate 75 KB 16,286 2024-05-18 22 Download
261 directory 68 KB 16,258 2024-05-18 24 Download
262 my 68 KB 16,241 2024-05-18 28 Download
263 wien 72 KB 15,834 2024-05-18 22 Download
264 institute 66 KB 15,744 2024-05-18 24 Download
265 codes 54 KB 15,226 2024-05-18 23 Download
266 hk 62 KB 15,168 2024-05-18 29 Download
267 blue 54 KB 14,977 2024-05-18 21 Download
268 pe 66 KB 14,962 2024-05-18 29 Download
269 wedding 74 KB 14,631 2024-05-18 23 Download
270 golf 57 KB 14,581 2024-05-18 22 Download
271 properties 60 KB 14,496 2024-05-18 22 Download
272 feedback 48 KB 14,381 2024-05-18 20 Download
273 eus 67 KB 14,327 2024-05-18 25 Download
274 moe 48 KB 14,044 2024-05-18 20 Download
275 boats 70 KB 13,955 2024-05-18 21 Download
276 partners 54 KB 13,950 2024-05-18 21 Download
277 beer 57 KB 13,892 2024-05-18 22 Download
278 ooo 45 KB 13,856 2024-05-18 24 Download
279 ua 50 KB 13,789 2024-05-18 91 Download
280 boutique 59 KB 13,772 2024-05-18 21 Download
281 clinic 57 KB 13,725 2024-05-18 25 Download
282 stream 58 KB 13,398 2024-05-18 24 Download
283 scot 62 KB 13,366 2024-05-18 22 Download
284 rentals 57 KB 13,361 2024-05-18 21 Download
285 miami 59 KB 13,285 2024-05-18 23 Download
286 lk 55 KB 13,147 2024-05-18 21 Download
287 yoga 51 KB 13,142 2024-05-18 22 Download
288 wales 61 KB 13,083 2024-05-18 21 Download
289 md 51 KB 13,039 2024-05-18 25 Download
290 sale 52 KB 12,834 2024-05-18 22 Download
291 gold 46 KB 12,798 2024-05-18 22 Download
292 aero 48 KB 12,710 2024-05-18 25 Download
293 fitness 50 KB 12,687 2024-05-18 23 Download
294 management 51 KB 12,605 2024-05-18 22 Download
295 rent 52 KB 12,553 2024-05-18 22 Download
296 tours 52 KB 12,544 2024-05-18 23 Download
297 reviews 57 KB 12,511 2024-05-18 21 Download
298 productions 49 KB 12,397 2024-05-18 21 Download
299 bot 41 KB 12,358 2024-05-18 11 Download
300 men 54 KB 12,332 2024-05-18 21 Download
301 direct 46 KB 12,133 2024-05-18 21 Download
302 college 66 KB 12,087 2024-05-18 21 Download
303 vegas 51 KB 11,839 2024-05-18 23 Download
304 style 44 KB 11,838 2024-05-18 22 Download
305 contact 45 KB 11,824 2024-05-18 21 Download
306 science 51 KB 11,804 2024-05-18 21 Download
307 pw 51 KB 11,772 2024-05-18 31 Download
308 vision 42 KB 11,761 2024-05-18 21 Download
309 clothing 48 KB 11,489 2024-05-18 21 Download
310 am 42 KB 11,452 2024-05-18 33 Download
311 tax 43 KB 11,451 2024-05-18 22 Download
312 ba 47 KB 11,431 2024-05-18 22 Download
313 xn--6qq986b3xl (我爱你) 59 KB 11,225 2024-05-18 24 Download
314 estate 45 KB 11,177 2024-05-18 22 Download
315 az 43 KB 11,146 2024-05-18 35 Download
316 solar 41 KB 11,098 2024-05-18 21 Download
317 xin 36 KB 10,963 2024-05-18 21 Download
318 kiwi 49 KB 10,870 2024-05-18 5 Download
319 jetzt 49 KB 10,781 2024-05-18 20 Download
320 yachts 54 KB 10,772 2024-05-18 20 Download
321 review 48 KB 10,576 2024-05-18 21 Download
322 vet 42 KB 10,475 2024-05-18 20 Download
323 day 43 KB 10,462 2024-05-18 20 Download
324 sexy 51 KB 10,438 2024-05-18 23 Download
325 frl 46 KB 10,361 2024-05-18 21 Download
326 li 42 KB 10,321 2024-05-18 22 Download
327 jobs 45 KB 10,308 2024-05-18 21 Download
328 gov 50 KB 10,257 2024-05-18 34 Download
329 report 40 KB 10,240 2024-05-18 20 Download
330 fashion 42 KB 10,237 2024-05-18 22 Download
331 careers 43 KB 10,198 2024-05-18 21 Download
332 ren 38 KB 10,174 2024-05-18 21 Download
333 makeup 53 KB 10,153 2024-05-18 22 Download
334 healthcare 42 KB 9,900 2024-05-18 22 Download
335 cards 36 KB 9,895 2024-05-18 21 Download
336 engineering 37 KB 9,739 2024-05-18 20 Download
337 watch 37 KB 9,738 2024-05-18 20 Download
338 construction 38 KB 9,720 2024-05-18 19 Download
339 sport 63 KB 9,616 2024-05-18 23 Download
340 place 34 KB 9,608 2024-05-18 20 Download
341 express 36 KB 9,506 2024-05-18 19 Download
342 vin 37 KB 9,393 2024-05-18 20 Download
343 green 36 KB 9,078 2024-05-18 19 Download
344 dental 38 KB 9,038 2024-05-18 22 Download
345 mk 38 KB 8,930 2024-05-18 24 Download
346 onl 31 KB 8,815 2024-05-18 20 Download
347 deals 34 KB 8,786 2024-05-18 19 Download
348 pictures 36 KB 8,781 2024-05-18 19 Download
349 kim 30 KB 8,745 2024-05-18 19 Download
350 lawyer 41 KB 8,614 2024-05-18 19 Download
351 dance 35 KB 8,579 2024-05-18 22 Download
352 holdings 33 KB 8,567 2024-05-18 19 Download
353 fans 39 KB 8,506 2024-05-18 20 Download
354 university 35 KB 8,479 2024-05-18 22 Download
355 gg 31 KB 8,476 2024-05-18 25 Download
356 haus 31 KB 8,473 2024-05-18 19 Download
357 delivery 33 KB 8,456 2024-05-18 20 Download
358 fan 30 KB 8,451 2024-05-18 20 Download
359 to 29 KB 8,443 2024-05-18 22 Download
360 shopping 36 KB 8,392 2024-05-18 24 Download
361 brussels 38 KB 8,298 2024-05-18 19 Download
362 coop 37 KB 8,275 2024-05-18 21 Download
363 tirol 38 KB 8,243 2024-05-18 19 Download
364 restaurant 36 KB 8,197 2024-05-18 20 Download
365 camp 32 KB 8,147 2024-05-18 19 Download
366 porn 38 KB 8,121 2024-05-18 23 Download
367 cymru 40 KB 8,115 2024-05-18 19 Download
368 enterprises 32 KB 8,040 2024-05-18 21 Download
369 la 29 KB 8,036 2024-05-18 24 Download
370 pizza 31 KB 8,033 2024-05-18 26 Download
371 loan 34 KB 7,898 2024-05-18 20 Download
372 download 36 KB 7,816 2024-05-18 28 Download
373 repair 33 KB 7,816 2024-05-18 20 Download
374 computer 29 KB 7,795 2024-05-18 19 Download
375 sucks 38 KB 7,763 2024-05-18 20 Download
376 kitchen 31 KB 7,694 2024-05-18 19 Download
377 domains 29 KB 7,672 2024-05-18 23 Download
378 financial 30 KB 7,659 2024-05-18 21 Download
379 ist 31 KB 7,609 2024-05-18 20 Download
380 al 30 KB 7,442 2024-05-18 24 Download
381 parts 29 KB 7,331 2024-05-18 19 Download
382 re 33 KB 7,320 2024-05-18 24 Download
383 au 40 KB 7,287 2024-05-18 38 Download
384 supply 28 KB 7,229 2024-05-18 19 Download
385 date 31 KB 7,168 2024-05-18 20 Download
386 srl 27 KB 7,168 2024-05-18 19 Download
387 xxx 31 KB 7,150 2024-05-18 29 Download
388 limited 29 KB 7,082 2024-05-18 19 Download
389 ng 30 KB 7,073 2024-05-18 26 Download
390 immobilien 30 KB 7,032 2024-05-18 19 Download
391 industries 27 KB 7,029 2024-05-18 19 Download
392 gal 34 KB 6,964 2024-05-18 20 Download
393 tn 29 KB 6,817 2024-05-18 26 Download
394 sydney 33 KB 6,731 2024-05-18 21 Download
395 investments 27 KB 6,667 2024-05-18 23 Download
396 sex 29 KB 6,594 2024-05-18 25 Download
397 adult 31 KB 6,487 2024-05-18 24 Download
398 loans 24 KB 6,485 2024-05-18 19 Download
399 cpa 27 KB 6,449 2024-05-18 5 Download
400 town 23 KB 6,395 2024-05-18 19 Download
401 black 24 KB 6,393 2024-05-18 19 Download
402 menu 30 KB 6,370 2024-05-18 19 Download
403 taxi 25 KB 6,330 2024-05-18 20 Download
404 eco 25 KB 6,303 2024-05-18 19 Download
405 credit 25 KB 6,288 2024-05-18 23 Download
406 film 29 KB 6,284 2024-05-18 19 Download
407 sa 24 KB 6,255 2024-05-18 25 Download
408 lighting 25 KB 6,244 2024-05-18 19 Download
409 graphics 25 KB 6,234 2024-05-18 20 Download
410 engineer 26 KB 6,222 2024-05-18 19 Download
411 fm 24 KB 6,203 2024-05-18 22 Download
412 ski 24 KB 6,190 2024-05-18 20 Download
413 dvag 37 KB 6,187 2024-05-18 9 Download
414 promo 25 KB 6,168 2024-05-18 20 Download
415 build 24 KB 6,050 2024-05-18 19 Download
416 mn 23 KB 6,037 2024-05-18 21 Download
417 builders 24 KB 5,981 2024-05-18 19 Download
418 melbourne 30 KB 5,981 2024-05-18 20 Download
419 auction 25 KB 5,972 2024-05-18 19 Download
420 ar 29 KB 5,970 2024-05-18 27 Download
421 im 21 KB 5,937 2024-05-18 23 Download
422 kaufen 27 KB 5,924 2024-05-18 19 Download
423 football 25 KB 5,902 2024-05-18 21 Download
424 motorcycles 33 KB 5,897 2024-05-18 8 Download
425 insure 23 KB 5,853 2024-05-18 19 Download
426 xn--6frz82g (移动) 32 KB 5,730 2024-05-18 21 Download
427 gift 23 KB 5,725 2024-05-18 20 Download
428 vlaanderen 28 KB 5,715 2024-05-18 20 Download
429 fish 21 KB 5,689 2024-05-18 19 Download
430 mba 20 KB 5,659 2024-05-18 21 Download
431 istanbul 26 KB 5,547 2024-05-18 21 Download
432 pink 21 KB 5,493 2024-05-18 19 Download
433 doctor 22 KB 5,377 2024-05-18 20 Download
434 boo 20 KB 5,356 2024-05-18 9 Download
435 xn--mk1bu44c (닷컴) 33 KB 5,304 2024-05-18 21 Download
436 gifts 21 KB 5,279 2024-05-18 19 Download
437 toys 20 KB 5,272 2024-05-18 19 Download
438 vc 19 KB 5,206 2024-05-18 23 Download
439 charity 24 KB 5,202 2024-05-18 19 Download
440 game 20 KB 5,139 2024-05-18 22 Download
441 ngo 21 KB 4,986 2024-05-18 20 Download
442 attorney 25 KB 4,964 2024-05-18 19 Download
443 inc 20 KB 4,954 2024-05-18 19 Download
444 boston 22 KB 4,898 2024-05-18 19 Download
445 vote 20 KB 4,878 2024-05-18 19 Download
446 faith 24 KB 4,852 2024-05-18 19 Download
447 ruhr 23 KB 4,807 2024-05-18 20 Download
448 audio 20 KB 4,785 2024-05-18 19 Download
449 garden 19 KB 4,771 2024-05-18 19 Download
450 bz 18 KB 4,758 2024-05-18 20 Download
451 equipment 20 KB 4,724 2024-05-18 20 Download
452 barcelona 22 KB 4,717 2024-05-18 19 Download
453 meme 20 KB 4,713 2024-05-18 10 Download
454 xn--hxt814e (网店) 33 KB 4,691 2024-05-18 20 Download
455 army 18 KB 4,622 2024-05-18 19 Download
456 ceo 18 KB 4,610 2024-05-18 20 Download
457 cologne 21 KB 4,610 2024-05-18 19 Download
458 kg 17 KB 4,592 2024-05-18 30 Download
459 tattoo 22 KB 4,588 2024-05-18 19 Download
460 kids 19 KB 4,574 2024-05-18 10 Download
461 surf 18 KB 4,527 2024-05-18 20 Download
462 trading 17 KB 4,492 2024-05-18 20 Download
463 country 15 KB 4,458 2024-05-18 20 Download
464 mortgage 19 KB 4,457 2024-05-18 19 Download
465 fail 18 KB 4,408 2024-05-18 19 Download
466 okinawa 20 KB 4,397 2024-05-18 5 Download
467 claims 18 KB 4,344 2024-05-18 21 Download
468 forsale 20 KB 4,332 2024-05-18 19 Download
469 capetown 21 KB 4,324 2024-05-18 21 Download
470 christmas 21 KB 4,315 2024-05-18 21 Download
471 uy 21 KB 4,312 2024-05-18 22 Download
472 reisen 19 KB 4,288 2024-05-18 19 Download
473 mov 20 KB 4,271 2024-05-18 10 Download
474 shoes 17 KB 4,266 2024-05-18 20 Download
475 tube 17 KB 4,260 2024-05-18 20 Download
476 sh 15 KB 4,212 2024-05-18 19 Download
477 schule 19 KB 4,207 2024-05-18 20 Download
478 apartments 19 KB 4,201 2024-05-18 19 Download
479 movie 20 KB 4,194 2024-05-18 19 Download
480 gives 20 KB 4,191 2024-05-18 20 Download
481 nagoya 19 KB 4,160 2024-05-18 5 Download
482 taipei 20 KB 4,152 2024-05-18 5 Download
483 ly 14 KB 4,143 2024-05-18 25 Download
484 salon 17 KB 4,106 2024-05-18 19 Download
485 racing 20 KB 4,100 2024-05-18 19 Download
486 poker 16 KB 4,092 2024-05-18 26 Download
487 recipes 17 KB 4,092 2024-05-18 19 Download
488 jewelry 17 KB 4,037 2024-05-18 19 Download
489 cab 14 KB 3,981 2024-05-18 19 Download
490 holiday 18 KB 3,978 2024-05-18 19 Download
491 saarland 20 KB 3,945 2024-05-18 20 Download
492 associates 17 KB 3,928 2024-05-18 20 Download
493 how 15 KB 3,833 2024-05-18 21 Download
494 moscow 17 KB 3,833 2024-05-18 43 Download
495 ec 18 KB 3,814 2024-05-18 21 Download
496 lgbt 16 KB 3,800 2024-05-18 21 Download
497 courses 18 KB 3,782 2024-05-18 20 Download
498 so 13 KB 3,743 2024-05-18 20 Download
499 cheap 16 KB 3,728 2024-05-18 19 Download
500 rodeo 17 KB 3,700 2024-05-18 19 Download
501 gratis 16 KB 3,644 2024-05-18 19 Download
502 contractors 16 KB 3,622 2024-05-18 19 Download
503 glass 14 KB 3,620 2024-05-18 19 Download
504 irish 16 KB 3,562 2024-05-18 20 Download
505 yokohama 17 KB 3,561 2024-05-18 5 Download
506 dating 14 KB 3,539 2024-05-18 23 Download
507 vacations 16 KB 3,509 2024-05-18 19 Download
508 cm 14 KB 3,499 2024-05-18 19 Download
509 soccer 14 KB 3,497 2024-05-18 19 Download
510 horse 15 KB 3,494 2024-05-18 20 Download
511 xn--tckwe (コム) 22 KB 3,481 2024-05-18 21 Download
512 gent 16 KB 3,452 2024-05-18 20 Download
513 markets 14 KB 3,441 2024-05-18 20 Download
514 study 16 KB 3,440 2024-05-18 20 Download
515 ag 13 KB 3,430 2024-05-18 20 Download
516 camera 14 KB 3,409 2024-05-18 19 Download
517 archi 13 KB 3,397 2024-05-18 20 Download
518 catering 16 KB 3,394 2024-05-18 19 Download
519 supplies 14 KB 3,360 2024-05-18 20 Download
520 exposed 15 KB 3,275 2024-05-18 20 Download
521 madrid 16 KB 3,258 2024-05-18 20 Download
522 discount 14 KB 3,248 2024-05-18 21 Download
523 ong 14 KB 3,216 2024-05-18 19 Download
524 box 9 KB 3,179 2024-05-18 19 Download
525 furniture 13 KB 3,143 2024-05-18 21 Download
526 quebec 16 KB 3,143 2024-05-18 19 Download
527 luxury 13 KB 3,126 2024-05-18 20 Download
528 rsvp 15 KB 3,118 2024-05-18 10 Download
529 dz 15 KB 3,094 2024-05-18 19 Download
530 singles 13 KB 3,093 2024-05-18 19 Download
531 st 11 KB 3,067 2024-05-18 20 Download
532 as 11 KB 3,022 2024-05-18 22 Download
533 luxe 12 KB 2,984 2024-05-18 19 Download
534 xn--3bst00m (集团) 23 KB 2,951 2024-05-18 19 Download
535 plumbing 13 KB 2,948 2024-05-18 19 Download
536 dad 12 KB 2,933 2024-05-18 9 Download
537 voyage 12 KB 2,923 2024-05-18 19 Download
538 dentist 14 KB 2,902 2024-05-18 20 Download
539 xn--80aswg (сайт) 11 KB 2,893 2024-05-18 27 Download
540 radio 12 KB 2,892 2024-05-18 20 Download
541 cleaning 12 KB 2,876 2024-05-18 19 Download
542 joburg 14 KB 2,825 2024-05-18 20 Download
543 actor 13 KB 2,781 2024-05-18 19 Download
544 foo 11 KB 2,775 2024-05-18 10 Download
545 ac 10 KB 2,773 2024-05-18 21 Download
546 qa 12 KB 2,770 2024-05-18 22 Download
547 xn--vhquv (企业) 20 KB 2,753 2024-05-18 20 Download
548 moda 10 KB 2,679 2024-05-18 20 Download
549 mu 12 KB 2,646 2024-05-18 20 Download
550 voto 8 KB 2,559 2024-05-18 20 Download
551 hosting 11 KB 2,556 2024-05-18 19 Download
552 futbol 11 KB 2,546 2024-05-18 20 Download
553 giving 11 KB 2,517 2024-05-18 10 Download
554 xn--vuq861b (信息) 14 KB 2,515 2024-05-18 5 Download
555 coupons 11 KB 2,489 2024-05-18 19 Download
556 webcam 12 KB 2,481 2024-05-18 22 Download
557 diamonds 10 KB 2,477 2024-05-18 19 Download
558 property 12 KB 2,476 2024-05-18 19 Download
559 broker 10 KB 2,460 2024-05-18 19 Download
560 florist 11 KB 2,452 2024-05-18 19 Download
561 observer 10 KB 2,443 2024-05-18 20 Download
562 xn--80adxhks (москва) 20 KB 2,432 2024-05-18 34 Download
563 alsace 12 KB 2,406 2024-05-18 19 Download
564 cooking 11 KB 2,406 2024-05-18 19 Download
565 bank 10 KB 2,405 2024-05-18 30 Download
566 esq 11 KB 2,401 2024-05-18 9 Download
567 xn--fiq228c5hs (中文网) 21 KB 2,333 2024-05-18 4 Download
568 degree 10 KB 2,319 2024-05-18 21 Download
569 cx 8 KB 2,296 2024-05-18 19 Download
570 ci 10 KB 2,291 2024-05-18 19 Download
571 xn--q9jyb4c (みんな) 11 KB 2,289 2024-05-18 19 Download
572 fo 9 KB 2,287 2024-05-18 20 Download
573 corsica 12 KB 2,277 2024-05-18 19 Download
574 do 9 KB 2,277 2024-05-18 20 Download
575 durban 11 KB 2,275 2024-05-18 19 Download
576 xn--80asehdb (онлайн) 14 KB 2,260 2024-05-18 27 Download
577 nc 11 KB 2,238 2024-05-18 19 Download
578 rehab 10 KB 2,237 2024-05-18 21 Download
579 bingo 9 KB 2,234 2024-05-18 20 Download
580 ps 9 KB 2,204 2024-05-18 23 Download
581 tienda 10 KB 2,182 2024-05-18 19 Download
582 hockey 9 KB 2,173 2024-05-18 19 Download
583 cruises 9 KB 2,138 2024-05-18 20 Download
584 forum 11 KB 2,129 2024-05-18 23 Download
585 cr 10 KB 2,125 2024-05-18 20 Download
586 flights 9 KB 2,093 2024-05-18 19 Download
587 villas 9 KB 2,093 2024-05-18 19 Download
588 hospital 9 KB 2,089 2024-05-18 20 Download
589 bargains 9 KB 2,073 2024-05-18 19 Download
590 xn--90ais (бел) 15 KB 2,054 2024-05-18 8 Download
591 limo 8 KB 2,036 2024-05-18 19 Download
592 lease 8 KB 2,017 2024-05-18 19 Download
593 xn--t60b56a (닷넷) 12 KB 2,011 2024-05-18 21 Download
594 tennis 8 KB 1,964 2024-05-18 22 Download
595 phd 9 KB 1,963 2024-05-18 18 Download
596 fishing 9 KB 1,918 2024-05-18 19 Download
597 nexus 8 KB 1,909 2024-05-18 9 Download
598 ga 9 KB 1,894 2024-05-18 29 Download
599 desi 7 KB 1,852 2024-05-18 19 Download
600 ms 7 KB 1,846 2024-05-18 19 Download
601 tj 8 KB 1,846 2024-05-18 20 Download
602 sn 8 KB 1,841 2024-05-18 19 Download
603 soy 8 KB 1,779 2024-05-18 19 Download
604 accountants 8 KB 1,765 2024-05-18 19 Download
605 xn--5tzm5g (网站) 11 KB 1,746 2024-05-18 20 Download
606 surgery 8 KB 1,741 2024-05-18 21 Download
607 vodka 7 KB 1,725 2024-05-18 21 Download
608 audi 12 KB 1,707 2024-05-18 5 Download
609 organic 7 KB 1,707 2024-05-18 21 Download
610 condos 8 KB 1,693 2024-05-18 19 Download
611 mma 11 KB 1,666 2024-05-18 18 Download
612 food 8 KB 1,660 2024-05-18 16 Download
613 kred 11 KB 1,626 2024-05-18 19 Download
614 vg 7 KB 1,535 2024-05-18 20 Download
615 krd 6 KB 1,517 2024-05-18 19 Download
616 theater 7 KB 1,495 2024-05-18 19 Download
617 new 5 KB 1,480 2024-05-18 20 Download
618 xn--9dbq2a (קום) 8 KB 1,457 2024-05-18 10 Download
619 hiphop 7 KB 1,445 2024-05-18 19 Download
620 versicherung 7 KB 1,397 2024-05-18 19 Download
621 accountant 7 KB 1,396 2024-05-18 19 Download
622 career 6 KB 1,394 2024-05-18 19 Download
623 creditcard 6 KB 1,352 2024-05-18 20 Download
624 gl 6 KB 1,341 2024-05-18 19 Download
625 allfinanz 9 KB 1,323 2024-05-18 8 Download
626 je 6 KB 1,317 2024-05-18 19 Download
627 gs 4 KB 1,314 2024-05-18 19 Download
628 tickets 8 KB 1,300 2024-05-18 19 Download
629 gop 6 KB 1,299 2024-05-18 19 Download
630 maison 6 KB 1,283 2024-05-18 20 Download
631 ax 6 KB 1,282 2024-05-18 5 Download
632 ky 7 KB 1,249 2024-05-18 19 Download
633 zuerich 7 KB 1,240 2024-05-18 19 Download
634 xn--czrs0t (商店) 7 KB 1,230 2024-05-18 21 Download
635 ml 6 KB 1,222 2024-05-18 32 Download
636 hn 6 KB 1,220 2024-05-18 19 Download
637 mt 6 KB 1,210 2024-05-18 19 Download
638 realty 6 KB 1,202 2024-05-18 19 Download
639 bible 6 KB 1,201 2024-05-18 20 Download
640 mg 6 KB 1,200 2024-05-18 19 Download
641 diet 6 KB 1,186 2024-05-18 21 Download
642 tires 5 KB 1,174 2024-05-18 19 Download
643 leclerc 6 KB 1,139 2024-05-18 19 Download
644 navy 5 KB 1,127 2024-05-18 21 Download
645 sarl 5 KB 1,114 2024-05-18 21 Download
646 cricket 5 KB 1,112 2024-05-18 20 Download
647 democrat 5 KB 1,078 2024-05-18 19 Download
648 republican 5 KB 1,078 2024-05-18 19 Download
649 rw 5 KB 1,073 2024-05-18 20 Download
650 flowers 5 KB 1,063 2024-05-18 19 Download
651 gt 5 KB 1,060 2024-05-18 20 Download
652 gripe 5 KB 1,056 2024-05-18 19 Download
653 mc 6 KB 1,038 2024-05-18 20 Download
654 xn--rhqv96g (世界) 6 KB 1,022 2024-05-18 21 Download
655 kyoto 5 KB 1,019 2024-05-18 21 Download
656 bm 5 KB 996 2024-05-18 21 Download
657 physio 5 KB 985 2024-05-18 23 Download
658 forex 4 KB 982 2024-05-18 21 Download
659 tatar 4 KB 979 2024-05-18 11 Download
660 pm 4 KB 969 2024-05-18 21 Download
661 reise 5 KB 968 2024-05-18 20 Download
662 osaka 5 KB 952 2024-05-18 19 Download
663 tc 4 KB 950 2024-05-18 20 Download
664 museum 5 KB 944 2024-05-18 20 Download
665 blackfriday 5 KB 924 2024-05-18 20 Download
666 viajes 4 KB 922 2024-05-18 19 Download
667 abudhabi 4 KB 918 2024-05-18 19 Download
668 whoswho 3 KB 914 2024-05-18 4 Download
669 sc 4 KB 888 2024-05-18 19 Download
670 om 4 KB 877 2024-05-18 20 Download
671 airforce 4 KB 870 2024-05-18 19 Download
672 xn--j1amh (укр) 6 KB 864 2024-05-18 23 Download
673 ad 4 KB 848 2024-05-18 20 Download
674 memorial 4 KB 837 2024-05-18 20 Download
675 xn--c1avg (орг) 5 KB 835 2024-05-18 28 Download
676 cd 4 KB 824 2024-05-18 19 Download
677 af 3 KB 819 2024-05-18 20 Download
678 ug 4 KB 809 2024-05-18 19 Download
679 xn--d1acj3b (дети) 5 KB 795 2024-05-18 26 Download
680 jo 4 KB 789 2024-05-18 19 Download
681 prof 4 KB 780 2024-05-18 9 Download
682 seat 5 KB 769 2024-05-18 19 Download
683 mv 3 KB 719 2024-05-18 19 Download
684 basketball 3 KB 705 2024-05-18 20 Download
685 rio 4 KB 688 2024-05-18 21 Download
686 abogado 3 KB 686 2024-05-18 19 Download
687 ryukyu 3 KB 686 2024-05-18 5 Download
688 neustar 3 KB 679 2024-05-18 20 Download
689 guitars 3 KB 675 2024-05-18 19 Download
690 ke 3 KB 634 2024-05-18 21 Download
691 select 3 KB 624 2024-05-18 19 Download
692 compare 3 KB 623 2024-05-18 18 Download
693 shiksha 3 KB 621 2024-05-18 19 Download
694 cv 3 KB 617 2024-05-18 19 Download
695 gi 3 KB 609 2024-05-18 19 Download
696 ltda 3 KB 609 2024-05-18 19 Download
697 security 3 KB 596 2024-05-18 19 Download
698 sr 3 KB 592 2024-05-18 20 Download
699 bi 3 KB 589 2024-05-18 19 Download
700 pharmacy 3 KB 588 2024-05-18 5 Download
701 storage 3 KB 588 2024-05-18 20 Download
702 sm 3 KB 581 2024-05-18 20 Download
703 pf 3 KB 576 2024-05-18 19 Download
704 xn--fiqs8s (中国) 5 KB 576 2024-05-18 5 Download
705 br 2 KB 572 2024-05-18 43 Download
706 crs 2 KB 572 2024-05-18 5 Download
707 rugby 3 KB 570 2024-05-18 21 Download
708 tf 2 KB 563 2024-05-18 21 Download
709 living 3 KB 561 2024-05-18 5 Download
710 bo 3 KB 557 2024-05-18 19 Download
711 ao 3 KB 555 2024-05-18 19 Download
712 xn--3e0b707e (한국) 5 KB 555 2024-05-18 5 Download
713 xn--mgbab2bd (بازار) 4 KB 551 2024-05-18 20 Download
714 gd 2 KB 550 2024-05-18 19 Download
715 tg 3 KB 543 2024-05-18 21 Download
716 gp 2 KB 529 2024-05-18 20 Download
717 gy 2 KB 529 2024-05-18 19 Download
718 juegos 3 KB 528 2024-05-18 19 Download
719 yt 2 KB 525 2024-05-18 20 Download
720 diy 3 KB 519 2024-05-18 5 Download
721 auto 2 KB 503 2024-05-18 20 Download
722 xn--ngbc5azd (شبكة) 4 KB 499 2024-05-18 19 Download
723 dj 2 KB 497 2024-05-18 20 Download
724 sx 2 KB 491 2024-05-18 19 Download
725 post 2 KB 487 2024-01-19 22 Download
726 bzh 3 KB 485 2024-05-18 19 Download
727 bh 2 KB 482 2024-05-18 19 Download
728 lc 2 KB 476 2024-05-18 19 Download
729 gmx 2 KB 474 2024-05-18 4 Download
730 xn--unup4y (游戏) 2 KB 468 2024-05-18 19 Download
731 iq 2 KB 461 2024-05-18 19 Download
732 bj 2 KB 452 2024-05-18 19 Download
733 qpon 2 KB 451 2024-05-18 19 Download
734 creditunion 2 KB 448 2024-05-18 20 Download
735 xn--fjq720a (娱乐) 2 KB 443 2024-05-18 18 Download
736 schwarz 2 KB 442 2024-05-18 20 Download
737 lifestyle 3 KB 437 2024-05-18 5 Download
738 ht 2 KB 409 2024-05-18 19 Download
739 bf 2 KB 399 2024-05-18 19 Download
740 tl 2 KB 393 2024-05-18 20 Download
741 sy 2 KB 385 2024-05-18 20 Download
742 abbott 2 KB 384 2024-05-18 5 Download
743 sd 2 KB 384 2024-05-18 19 Download
744 cu 2 KB 378 2024-05-18 19 Download
745 xn--nqv7f (机构) 3 KB 370 2024-05-18 17 Download
746 et 2 KB 369 2024-05-18 18 Download
747 moi 2 KB 365 2024-05-18 5 Download
748 mr 2 KB 361 2024-05-18 22 Download
749 goog 2 KB 360 2024-05-18 19 Download
750 aco 1 KB 353 2024-05-18 19 Download
751 tm 2 KB 353 2024-05-18 22 Download
752 xn--node (გე) 2 KB 336 2024-05-18 4 Download
753 gm 2 KB 331 2024-05-18 19 Download
754 bt 2 KB 330 2024-05-18 20 Download
755 broadway 2 KB 324 2024-05-18 18 Download
756 car 1 KB 312 2024-05-18 19 Download
757 ne 2 KB 306 2024-05-18 19 Download
758 mw 2 KB 305 2024-05-18 21 Download
759 channel 2 KB 301 2024-05-18 19 Download
760 xn--xhq521b (广东) 2 KB 289 2024-05-18 9 Download
761 cars 1 KB 287 2024-05-18 20 Download
762 cg 1 KB 275 2024-05-18 19 Download
763 sv 1 KB 270 2024-05-18 19 Download
764 tt 1 KB 269 2024-05-18 19 Download
765 lundbeck 1 KB 267 2024-05-18 4 Download
766 watches 1 KB 261 2024-05-18 9 Download
767 eg 1 KB 259 2024-05-18 19 Download
768 wf 1 KB 259 2024-05-18 20 Download
769 cw 1 KB 248 2024-05-18 6 Download
770 lamborghini 1 KB 245 2024-05-18 5 Download
771 cy 1 KB 242 2024-05-18 21 Download
772 fox 1 KB 236 2024-05-18 10 Download
773 pr 1 KB 233 2024-05-18 19 Download
774 vu 1 KB 232 2024-05-18 19 Download
775 hiv 1 KB 216 2024-05-18 20 Download
776 bradesco 1 KB 201 2024-05-18 19 Download
777 man 1 KB 191 2024-05-18 21 Download
778 sl 1 KB 191 2024-05-18 20 Download
779 xn--g2xx48c (购物) 2 KB 190 2024-05-18 4 Download
780 stockholm 1 KB 188 2024-05-18 19 Download
781 mini 1 KB 187 2024-05-18 9 Download
782 aw 1011 Byte 182 2024-05-18 18 Download
783 google 1 KB 182 2024-05-18 22 Download
784 pa 1 KB 178 2024-05-18 18 Download
785 sb 677 Byte 177 2024-05-18 5 Download
786 weir 1 KB 176 2024-05-18 4 Download
787 xn--fiq64b (中信) 1 KB 173 2024-05-18 9 Download
788 mo 1 KB 171 2024-05-18 20 Download
789 music 1 KB 169 2024-05-18 5 Download
790 va 1 KB 169 2024-05-18 5 Download
791 globo 1 KB 167 2024-05-18 20 Download
792 weber 825 Byte 163 2024-05-18 5 Download
793 int 689 Byte 162 2024-05-18 23 Download
794 insurance 978 Byte 161 2024-05-18 5 Download
795 bb 986 Byte 160 2024-05-18 20 Download
796 xn--1qqw23a (佛山) 1 KB 160 2024-05-18 9 Download
797 citic 853 Byte 156 2024-05-18 10 Download
798 dealer 966 Byte 156 2024-05-18 19 Download
799 xn--90a3ac (срб) 1 KB 151 2024-05-18 5 Download
800 mq 1 KB 150 2024-05-18 19 Download
801 esurance 901 Byte 147 2024-05-18 4 Download
802 xn--cck2b3b (ストア) 1 KB 143 2024-05-18 5 Download
803 mp 763 Byte 142 2024-05-18 5 Download
804 xn--i1b6b1a6a2e (संगठन) 1 KB 136 2024-05-18 18 Download
805 xn--o3cw4h (ไทย) 1 KB 136 2024-05-18 5 Download
806 barclays 898 Byte 135 2024-05-18 9 Download
807 bs 778 Byte 135 2024-05-18 19 Download
808 lipsy 644 Byte 132 2024-05-18 6 Download
809 bmw 867 Byte 131 2024-05-18 11 Download
810 jnj 868 Byte 130 2024-05-18 6 Download
811 ls 554 Byte 130 2024-05-18 20 Download
812 nra 904 Byte 129 2024-05-18 18 Download
813 na 720 Byte 128 2024-05-18 20 Download
814 hm 672 Byte 127 2024-05-18 21 Download
815 theatre 825 Byte 126 2024-05-18 18 Download
816 aws 792 Byte 124 2024-05-18 5 Download
817 vi 740 Byte 123 2024-05-18 19 Download
818 stada 677 Byte 121 2024-05-18 18 Download
819 sbi 697 Byte 116 2024-05-18 9 Download
820 auspost 752 Byte 115 2024-05-18 4 Download
821 erni 908 Byte 115 2024-05-18 19 Download
822 sky 744 Byte 114 2024-05-18 19 Download
823 toyota 810 Byte 112 2024-05-18 10 Download
824 protection 756 Byte 107 2024-05-18 18 Download
825 xn--1ck2e1b (セール) 875 Byte 107 2024-05-18 5 Download
826 afl 695 Byte 106 2024-05-18 5 Download
827 total 758 Byte 106 2024-05-18 9 Download
828 yandex 642 Byte 103 2024-05-18 8 Download
829 xn--4gbrim (موقع) 898 Byte 102 2024-05-18 18 Download
830 discover 673 Byte 101 2024-05-18 4 Download
831 edeka 776 Byte 100 2024-05-18 4 Download
832 td 555 Byte 100 2024-05-18 18 Download
833 saxo 701 Byte 99 2024-05-18 8 Download
834 target 703 Byte 99 2024-05-18 19 Download
835 lotto 688 Byte 97 2024-05-18 10 Download
836 nf 583 Byte 97 2024-05-18 5 Download
837 amazon 766 Byte 95 2024-05-18 4 Download
838 gf 679 Byte 94 2024-05-18 18 Download
839 teva 541 Byte 94 2024-05-18 10 Download
840 microsoft 607 Byte 88 2024-05-18 5 Download
841 rich 549 Byte 88 2024-05-18 9 Download
842 xn--y9a3aq (հայ) 788 Byte 86 2024-05-18 5 Download
843 iselect 531 Byte 86 2024-05-18 1 Download
844 cern 635 Byte 85 2024-05-18 9 Download
845 toray 594 Byte 85 2024-05-18 9 Download
846 xn--gckr3f0f (クラウド) 674 Byte 85 2024-05-18 5 Download
847 cancerresearch 603 Byte 85 2024-05-18 3 Download
848 xn--j6w193g (香港) 964 Byte 84 2024-05-18 5 Download
849 azure 473 Byte 83 2024-05-18 8 Download
850 deloitte 589 Byte 83 2024-05-18 5 Download
851 th 655 Byte 80 2024-05-18 21 Download
852 monash 589 Byte 79 2024-05-18 8 Download
853 dhl 618 Byte 78 2024-05-18 8 Download
854 reit 555 Byte 78 2024-05-18 17 Download
855 bloomberg 589 Byte 77 2024-05-18 4 Download
856 pru 552 Byte 77 2024-05-18 4 Download
857 komatsu 597 Byte 76 2024-05-18 9 Download
858 tui 576 Byte 76 2024-05-18 10 Download
859 xn--zfr164b (政务) 1 KB 76 2024-05-18 8 Download
860 cba 499 Byte 75 2024-05-18 8 Download
861 dm 558 Byte 75 2024-05-18 18 Download
862 pn 441 Byte 75 2024-05-18 18 Download
863 gw 567 Byte 74 2024-05-18 18 Download
864 xn--fct429k (家電) 620 Byte 74 2024-05-18 5 Download
865 canon 448 Byte 72 2024-05-18 5 Download
866 xn--gecrj9c (ભારત) 819 Byte 71 2024-05-18 4 Download
867 kn 512 Byte 70 2024-05-18 18 Download
868 ifm 523 Byte 69 2024-05-18 4 Download
869 prudential 538 Byte 68 2024-05-18 3 Download
870 xn--otu796d (招聘) 696 Byte 67 2024-05-18 9 Download
871 chase 522 Byte 65 2024-05-18 4 Download
872 tz 481 Byte 65 2024-05-18 18 Download
873 xn--h2brj9c (भारत) 711 Byte 64 2024-05-18 5 Download
874 pfizer 522 Byte 63 2024-05-18 4 Download
875 sncf 517 Byte 63 2024-05-18 4 Download
876 kfh 418 Byte 62 2024-05-18 9 Download
877 fage 412 Byte 61 2024-05-18 4 Download
878 bw 407 Byte 59 2024-05-18 20 Download
879 kpn 456 Byte 58 2024-05-18 8 Download
880 lidl 468 Byte 57 2024-05-18 8 Download
881 xn--bck1b9a5dre4c (ファッション) 519 Byte 57 2024-05-18 5 Download
882 xn--qxam (ελ) 552 Byte 57 2024-05-18 5 Download
883 jpmorgan 522 Byte 55 2024-05-18 4 Download
884 xn--mgbca7dzdo (ابوظبي) 881 Byte 55 2024-05-18 9 Download
885 uol 427 Byte 54 2024-05-18 9 Download
886 bridgestone 500 Byte 53 2024-05-18 8 Download
887 aig 453 Byte 51 2024-05-18 4 Download
888 hoteles 620 Byte 51 2024-05-18 18 Download
889 ki 340 Byte 51 2024-05-18 18 Download
890 trust 483 Byte 51 2024-05-18 10 Download
891 aquarelle 554 Byte 50 2024-05-18 8 Download
892 mango 422 Byte 50 2024-05-18 8 Download
893 xn--55qw42g (公益) 934 Byte 50 2024-05-18 8 Download
894 meet 388 Byte 49 2024-05-18 8 Download
895 ricoh 470 Byte 49 2024-05-18 9 Download
896 xn--jvr189m (食品) 513 Byte 49 2024-05-18 4 Download
897 xn--kpry57d (台灣) 631 Byte 49 2024-05-18 5 Download
898 firmdale 461 Byte 48 2024-05-18 5 Download
899 shell 445 Byte 48 2024-05-18 8 Download
900 smart 380 Byte 48 2024-05-18 5 Download
901 airbus 428 Byte 47 2024-05-18 5 Download
902 fresenius 466 Byte 44 2024-05-18 8 Download
903 xn--90ae (бг) 508 Byte 44 2024-05-18 5 Download
904 philips 422 Byte 43 2024-05-18 8 Download
905 vana 343 Byte 43 2024-05-18 7 Download
906 pictet 436 Byte 42 2024-05-18 8 Download
907 xn--45q11c (八卦) 454 Byte 42 2024-05-18 9 Download
908 axa 423 Byte 41 2024-05-18 4 Download
909 mlb 372 Byte 41 2024-05-18 4 Download
910 aq 391 Byte 40 2024-05-18 5 Download
911 statefarm 433 Byte 40 2024-05-18 4 Download
912 apple 381 Byte 39 2024-05-18 5 Download
913 ipiranga 456 Byte 39 2024-05-18 8 Download
914 scb 361 Byte 39 2024-05-18 8 Download
915 case 339 Byte 38 2024-05-18 4 Download
916 vivo 364 Byte 38 2024-05-18 17 Download
917 xbox 370 Byte 38 2024-05-18 9 Download
918 statebank 321 Byte 37 2024-05-18 8 Download
919 xn--rovu88b (書籍) 429 Byte 37 2024-05-18 5 Download
920 anz 334 Byte 36 2024-05-18 4 Download
921 godaddy 378 Byte 36 2024-05-18 4 Download
922 sandvik 403 Byte 36 2024-05-18 8 Download
923 abbvie 355 Byte 34 2024-05-18 4 Download
924 schmidt 403 Byte 34 2024-05-18 8 Download
925 xn--imr513n (餐厅) 438 Byte 34 2024-05-18 8 Download
926 km 367 Byte 33 2024-05-18 9 Download
927 bauhaus 282 Byte 32 2024-05-18 8 Download
928 cisco 358 Byte 31 2024-05-18 4 Download
929 sap 299 Byte 31 2024-05-18 9 Download
930 vig 360 Byte 31 2024-05-18 8 Download
931 abb 331 Byte 30 2024-05-18 4 Download
932 ikano 340 Byte 29 2024-05-18 4 Download
933 itau 346 Byte 29 2024-05-18 8 Download
934 itv 360 Byte 29 2024-05-18 4 Download
935 sandvikcoromant 364 Byte 29 2024-05-18 5 Download
936 hisamitsu 301 Byte 28 2024-05-18 8 Download
937 shriram 358 Byte 28 2024-05-18 3 Download
938 barclaycard 367 Byte 27 2024-05-18 8 Download
939 bentley 328 Byte 27 2024-05-18 4 Download
940 clubmed 311 Byte 27 2024-05-18 4 Download
941 gdn 324 Byte 27 2024-05-18 5 Download
942 latrobe 325 Byte 27 2024-05-18 4 Download
943 sener 344 Byte 27 2024-05-18 4 Download
944 edu 316 Byte 26 2024-05-18 53 Download
945 liaison 485 Byte 26 2024-05-18 1 Download
946 sew 328 Byte 25 2024-05-18 9 Download
947 ismaili 315 Byte 24 2024-05-18 8 Download
948 walter 334 Byte 24 2024-05-18 5 Download
949 williamhill 326 Byte 24 2024-05-18 8 Download
950 xn--nyqy26a (健康) 384 Byte 24 2024-05-18 9 Download
951 bing 277 Byte 23 2024-05-18 17 Download
952 dell 276 Byte 23 2024-05-18 4 Download
953 schaeffler 327 Byte 23 2024-05-18 4 Download
954 gmo 288 Byte 22 2024-05-18 4 Download
955 hyatt 286 Byte 22 2024-05-18 4 Download
956 windows 287 Byte 22 2024-05-18 8 Download
957 woodside 292 Byte 22 2024-05-18 4 Download
958 allstate 297 Byte 21 2024-05-18 4 Download
959 wed 316 Byte 21 2024-05-18 8 Download
960 xn--80ao21a (қаз) 344 Byte 21 2024-05-18 4 Download
961 xn--mgbaam7a8h (امارات) 510 Byte 21 2024-05-18 4 Download
962 hotmail 272 Byte 20 2024-05-18 17 Download
963 jio 272 Byte 20 2024-05-18 17 Download
964 redstone 345 Byte 20 2024-05-18 8 Download
965 ye 280 Byte 20 2024-05-18 21 Download
966 abc 293 Byte 19 2024-05-18 6 Download
967 ally 272 Byte 19 2024-05-18 4 Download
968 gea 284 Byte 19 2024-05-18 4 Download
969 lanxess 277 Byte 19 2024-05-18 4 Download
970 locus 286 Byte 19 2024-05-18 4 Download
971 nr 240 Byte 19 2024-05-18 5 Download
972 praxi 319 Byte 19 2024-05-18 8 Download
973 sanofi 293 Byte 19 2024-05-18 4 Download
974 sharp 246 Byte 19 2024-05-18 9 Download
975 xn--fpcrj9c3d (భారత్) 423 Byte 19 2024-05-18 4 Download
976 youtube 306 Byte 19 2024-05-18 9 Download
977 gle 259 Byte 18 2024-05-18 9 Download
978 hitachi 296 Byte 18 2024-05-18 4 Download
979 jcb 255 Byte 18 2024-05-18 4 Download
980 pioneer 310 Byte 18 2024-05-18 10 Download
981 xn--ngbe9e0a (بيتك) 316 Byte 18 2024-05-18 9 Download
982 bn 265 Byte 16 2024-05-18 18 Download
983 marriott 298 Byte 16 2024-05-18 4 Download
984 next 247 Byte 16 2024-05-18 5 Download
985 suzuki 256 Byte 16 2024-05-18 4 Download
986 catholic 290 Byte 15 2024-05-18 5 Download
987 mz 259 Byte 15 2024-05-18 18 Download
988 ni 259 Byte 15 2024-05-18 18 Download
989 ntt 258 Byte 15 2024-05-18 10 Download
990 otsuka 267 Byte 15 2024-05-18 4 Download
991 tatamotors 276 Byte 15 2024-05-18 5 Download
992 csc 263 Byte 15 2024-05-18 2 Download
993 lupin 422 Byte 15 2024-05-18 1 Download
994 extraspace 275 Byte 14 2024-05-18 4 Download
995 ford 256 Byte 14 2024-05-18 4 Download
996 gucci 266 Byte 14 2024-05-18 4 Download
997 kpmg 277 Byte 14 2024-05-18 4 Download
998 xn--fzc2c9e2c (ලංකා) 351 Byte 14 2024-05-18 4 Download
999 arte 246 Byte 13 2024-05-18 5 Download
1000 bbva 260 Byte 13 2024-05-18 4 Download
1001 cuisinella 271 Byte 13 2024-05-18 5 Download
1002 hsbc 263 Byte 13 2024-05-18 4 Download
1003 rexroth 292 Byte 13 2024-05-18 6 Download
1004 tr 235 Byte 13 2024-05-18 15 Download
1005 vanguard 262 Byte 13 2024-05-18 5 Download
1006 zm 259 Byte 13 2024-05-18 18 Download
1007 seven 245 Byte 12 2024-05-18 4 Download
1008 dubai 252 Byte 11 2024-05-18 8 Download
1009 gu 244 Byte 11 2024-05-18 5 Download
1010 helsinki 269 Byte 11 2024-05-18 8 Download
1011 hyundai 258 Byte 11 2024-05-18 8 Download
1012 jll 263 Byte 11 2024-05-18 4 Download
1013 nico 231 Byte 11 2024-05-18 4 Download
1014 xn--54b7fta0cc (বাংলা) 329 Byte 11 2024-05-18 4 Download
1015 cbs 238 Byte 10 2024-05-18 4 Download
1016 emerck 246 Byte 10 2024-05-18 5 Download
1017 kw 219 Byte 10 2024-05-18 18 Download
1018 nowruz 243 Byte 10 2024-05-18 9 Download
1019 politie 239 Byte 10 2024-05-18 17 Download
1020 stc 231 Byte 10 2024-05-18 8 Download
1021 xn--kcrx77d1x4a (飞利浦) 299 Byte 10 2024-05-18 9 Download
1022 brother 233 Byte 9 2024-05-18 9 Download
1023 dabur 239 Byte 9 2024-05-18 9 Download
1024 sony 234 Byte 9 2024-05-18 8 Download
1025 sz 239 Byte 9 2024-05-18 18 Download
1026 ve 207 Byte 9 2024-05-18 19 Download
1027 xn--mgbayh7gpa (الاردن) 346 Byte 9 2024-05-18 4 Download
1028 bostik 243 Byte 8 2024-05-18 8 Download
1029 ice 213 Byte 8 2024-05-18 9 Download
1030 aetna 212 Byte 7 2024-05-18 5 Download
1031 chintai 232 Byte 7 2024-05-18 9 Download
1032 hermes 228 Byte 7 2024-05-18 8 Download
1033 lancaster 228 Byte 7 2024-05-18 8 Download
1034 nec 217 Byte 7 2024-05-18 8 Download
1035 office 232 Byte 7 2024-05-18 19 Download
1036 sfr 220 Byte 7 2024-05-18 8 Download
1037 skype 227 Byte 7 2024-05-18 19 Download
1038 wme 212 Byte 7 2024-05-18 9 Download
1039 xn--efvy88h (新闻) 244 Byte 7 2024-05-18 9 Download
1040 xn--l1acc (мон) 241 Byte 7 2024-05-18 4 Download
1041 spreadbetting 251 Byte 7 2024-05-18 3 Download
1042 bbc 201 Byte 6 2024-05-18 20 Download
1043 ferrero 233 Byte 6 2024-05-18 8 Download
1044 honda 205 Byte 6 2024-05-18 8 Download
1045 mattel 206 Byte 6 2024-05-18 8 Download
1046 sohu 189 Byte 6 2024-05-18 9 Download
1047 cbn 204 Byte 5 2024-05-18 8 Download
1048 gh 204 Byte 5 2024-05-18 19 Download
1049 gmail 198 Byte 5 2024-05-18 13 Download
1050 grainger 239 Byte 5 2024-05-18 8 Download
1051 lexus 202 Byte 5 2024-05-18 9 Download
1052 mtn 207 Byte 5 2024-05-18 8 Download
1053 netbank 217 Byte 5 2024-05-18 9 Download
1054 softbank 222 Byte 5 2024-05-18 8 Download
1055 able 200 Byte 4 2024-05-18 20 Download
1056 android 213 Byte 4 2024-05-18 9 Download
1057 citi 191 Byte 4 2024-05-18 18 Download
1058 commbank 209 Byte 4 2024-05-18 10 Download
1059 eurovision 214 Byte 4 2024-05-18 5 Download
1060 fujitsu 211 Byte 4 2024-05-18 17 Download
1061 imamat 201 Byte 4 2024-05-18 9 Download
1062 jmp 199 Byte 4 2024-05-18 9 Download
1063 nike 199 Byte 4 2024-05-18 18 Download
1064 py 189 Byte 4 2024-05-18 23 Download
1065 tvs 197 Byte 4 2024-05-18 7 Download
1066 akdn 186 Byte 3 2024-05-18 8 Download
1067 amica 191 Byte 3 2024-05-18 9 Download
1068 analytics 212 Byte 3 2024-05-18 8 Download
1069 crown 193 Byte 3 2024-05-18 8 Download
1070 here 192 Byte 3 2024-05-18 9 Download
1071 jprs 196 Byte 3 2024-05-18 9 Download
1072 kia 183 Byte 3 2024-05-18 8 Download
1073 panasonic 218 Byte 3 2024-05-18 18 Download
1074 ping 192 Byte 3 2024-05-18 9 Download
1075 pohl 214 Byte 3 2024-05-18 6 Download
1076 samsung 199 Byte 3 2024-05-18 9 Download
1077 xn--vermgensberatung-pwb (vermögensberatung) 283 Byte 3 2024-05-18 10 Download
1078 ses 191 Byte 3 2024-05-18 16 Download
1079 ads 185 Byte 2 2024-05-18 10 Download
1080 bcn 178 Byte 2 2024-05-18 8 Download
1081 beats 183 Byte 2 2024-05-18 9 Download
1082 caravan 190 Byte 2 2024-05-18 8 Download
1083 chrome 188 Byte 2 2024-05-18 8 Download
1084 cookingchannel 214 Byte 2 2024-05-18 17 Download
1085 docs 181 Byte 2 2024-05-18 9 Download
1086 eat 185 Byte 2 2024-05-18 8 Download
1087 epson 190 Byte 2 2024-05-18 8 Download
1088 firestone 200 Byte 2 2024-05-18 8 Download
1089 flir 183 Byte 2 2024-05-18 9 Download
1090 fly 185 Byte 2 2024-05-18 8 Download
1091 ftr 182 Byte 2 2024-05-18 9 Download
1092 passagens 203 Byte 2 2024-05-18 9 Download
1093 play 180 Byte 2 2024-05-18 5 Download
1094 prod 188 Byte 2 2024-05-18 9 Download
1095 sakura 194 Byte 2 2024-05-18 10 Download
1096 sas 179 Byte 2 2024-05-18 9 Download
1097 vuelos 194 Byte 2 2024-05-18 10 Download
1098 xn--kput3i (手机) 209 Byte 2 2024-05-18 23 Download
1099 xn--vermgensberater-ctb (vermögensberater) 261 Byte 2 2024-05-18 9 Download
1100 za 175 Byte 2 2024-05-18 26 Download
1101 lixil 194 Byte 2 2024-05-18 3 Download
1102 agakhan 184 Byte 1 2024-05-18 6 Download
1103 airtel 181 Byte 1 2024-05-18 6 Download
1104 anquan 181 Byte 1 2024-05-18 6 Download
1105 arab 175 Byte 1 2024-05-18 15 Download
1106 aramco 181 Byte 1 2024-05-18 6 Download
1107 author 181 Byte 1 2024-05-18 6 Download
1108 avianca 184 Byte 1 2024-05-18 5 Download
1109 baidu 178 Byte 1 2024-05-18 5 Download
1110 bom 172 Byte 1 2024-05-18 7 Download
1111 book 175 Byte 1 2024-05-18 6 Download
1112 booking 184 Byte 1 2024-05-18 5 Download
1113 buy 172 Byte 1 2024-05-18 6 Download
1114 cal 172 Byte 1 2024-05-18 6 Download
1115 call 175 Byte 1 2024-05-18 6 Download
1116 cityeats 187 Byte 1 2024-05-18 5 Download
1117 clinique 187 Byte 1 2024-05-18 5 Download
1118 comsec 181 Byte 1 2024-05-18 6 Download
1119 data 175 Byte 1 2024-05-18 16 Download
1120 dclk 175 Byte 1 2024-05-18 6 Download
1121 dds 172 Byte 1 2024-05-18 5 Download
1122 deal 175 Byte 1 2024-05-18 5 Download
1123 delta 178 Byte 1 2024-05-18 5 Download
1124 dot 172 Byte 1 2024-05-18 6 Download
1125 drive 178 Byte 1 2024-05-18 6 Download
1126 etisalat 187 Byte 1 2024-05-18 15 Download
1127 farmers 184 Byte 1 2024-05-18 14 Download
1128 fast 175 Byte 1 2024-05-18 6 Download
1129 final 178 Byte 1 2024-05-18 5 Download
1130 fire 175 Byte 1 2024-05-18 5 Download
1131 foodnetwork 196 Byte 1 2024-05-18 14 Download
1132 free 175 Byte 1 2024-05-18 15 Download
1133 frontdoor 190 Byte 1 2024-05-18 14 Download
1134 frontier 187 Byte 1 2024-05-18 5 Download
1135 gbiz 175 Byte 1 2024-05-18 6 Download
1136 grocery 184 Byte 1 2024-05-18 15 Download
1137 guge 175 Byte 1 2024-05-18 6 Download
1138 hangout 184 Byte 1 2024-05-18 6 Download
1139 hdfc 175 Byte 1 2024-05-18 15 Download
1140 hgtv 175 Byte 1 2024-05-18 15 Download
1141 hkt 172 Byte 1 2024-05-18 4 Download
1142 hot 172 Byte 1 2024-05-18 13 Download
1143 hotels 181 Byte 1 2024-05-18 15 Download
1144 icbc 175 Byte 1 2024-05-18 5 Download
1145 joy 172 Byte 1 2024-05-18 4 Download
1146 kinder 181 Byte 1 2024-05-18 14 Download
1147 kosher 181 Byte 1 2024-05-18 4 Download
1148 lacaixa 184 Byte 1 2024-05-18 5 Download
1149 lamer 178 Byte 1 2024-05-18 4 Download
1150 lds 172 Byte 1 2024-05-18 4 Download
1151 like 175 Byte 1 2024-05-18 6 Download
1152 lpl 172 Byte 1 2024-05-18 15 Download
1153 lplfinancial 199 Byte 1 2024-05-18 15 Download
1154 map 172 Byte 1 2024-05-18 16 Download
1155 merckmsd 187 Byte 1 2024-05-18 15 Download
1156 mitsubishi 193 Byte 1 2024-05-18 14 Download
1157 mormon 181 Byte 1 2024-05-18 5 Download
1158 msd 172 Byte 1 2024-05-18 14 Download
1159 nowtv 178 Byte 1 2024-05-18 5 Download
1160 obi 172 Byte 1 2024-05-18 4 Download
1161 pars 175 Byte 1 2024-05-18 4 Download
1162 pay 172 Byte 1 2024-05-18 15 Download
1163 pccw 175 Byte 1 2024-05-18 5 Download
1164 pid 172 Byte 1 2024-05-18 4 Download
1165 playstation 196 Byte 1 2024-05-18 3 Download
1166 reliance 187 Byte 1 2024-05-18 16 Download
1167 richardli 190 Byte 1 2024-05-18 5 Download
1168 ril 172 Byte 1 2024-05-18 15 Download
1169 rocher 181 Byte 1 2024-05-18 14 Download
1170 safety 181 Byte 1 2024-05-18 4 Download
1171 sca 172 Byte 1 2024-05-18 16 Download
1172 scholarships 199 Byte 1 2024-05-18 4 Download
1173 search 181 Byte 1 2024-05-18 16 Download
1174 shia 175 Byte 1 2024-05-18 5 Download
1175 shouji 181 Byte 1 2024-05-18 6 Download
1176 sina 175 Byte 1 2024-05-18 4 Download
1177 staples 184 Byte 1 2024-05-18 16 Download
1178 star 175 Byte 1 2024-05-18 5 Download
1179 stcgroup 187 Byte 1 2024-05-18 6 Download
1180 tab 172 Byte 1 2024-05-18 5 Download
1181 talk 175 Byte 1 2024-05-18 5 Download
1182 tci 172 Byte 1 2024-05-18 4 Download
1183 tiffany 184 Byte 1 2024-05-18 5 Download
1184 travelchannel 202 Byte 1 2024-05-18 17 Download
1185 tunes 178 Byte 1 2024-05-18 4 Download
1186 verisign 187 Byte 1 2024-05-18 5 Download
1187 virgin 181 Byte 1 2024-05-18 4 Download
1188 viva 175 Byte 1 2024-05-18 4 Download
1189 weather 184 Byte 1 2024-05-18 4 Download
1190 weatherchannel 205 Byte 1 2024-05-18 5 Download
1191 weibo 178 Byte 1 2024-05-18 5 Download
1192 winners 184 Byte 1 2024-05-18 5 Download
1193 wow 172 Byte 1 2024-05-18 5 Download
1194 wtc 172 Byte 1 2024-05-18 5 Download
1195 xerox 178 Byte 1 2024-05-18 5 Download
1196 xihuan 181 Byte 1 2024-05-18 5 Download
1197 xn--11b4c3d (कॉम) 196 Byte 1 2024-05-18 4 Download
1198 xn--3pxu8k (点看) 193 Byte 1 2024-05-18 5 Download
1199 xn--42c2d9a (คอม) 196 Byte 1 2024-05-18 4 Download
1200 xn--9krt00a (微博) 196 Byte 1 2024-05-18 6 Download
1201 xn--c2br7g (नेट) 193 Byte 1 2024-05-18 4 Download
1202 xn--cg4bki (삼성) 193 Byte 1 2024-05-18 5 Download
1203 xn--fhbei (كوم) 190 Byte 1 2024-05-18 4 Download
1204 xn--flw351e (谷歌) 196 Byte 1 2024-05-18 5 Download
1205 xn--fzys8d69uvgm (電訊盈科) 211 Byte 1 2024-05-18 5 Download
1206 xn--j1aef (ком) 190 Byte 1 2024-05-18 19 Download
1207 xn--mgbaakc7dvf (اتصالات) 208 Byte 1 2024-05-18 5 Download
1208 xn--mgbt3dhd (همراه) 199 Byte 1 2024-05-18 4 Download
1209 xn--ngbrx (عرب) 190 Byte 1 2024-05-18 6 Download
1210 xn--pssy2u (大拿) 193 Byte 1 2024-05-18 6 Download
1211 xn--qcka1pmc (グーグル) 199 Byte 1 2024-05-18 5 Download
1212 you 172 Byte 1 2024-05-18 7 Download
1213 yun 172 Byte 1 2024-05-18 4 Download
1214 xn--6qq986b (我你) 204 Byte 1 2024-01-19 14 Download
1215 adac 175 Byte 1 2024-05-18 3 Download
1216 budapest 187 Byte 1 2024-05-18 5 Download